Kingsville, TX

9:16 AM CDT on March 30, 2015 (GMT -0500)
Kingsville Naval Air Station | | Change Station
CLOSE
Current Station
Airport
Location: Kingsville NAS,
Elevation: 49 ft
Nearby Weather Stations

Elev 49 ft 27.51 °N, 97.81 °W | Updated 12 minutes ago

Overcast
Overcast
71 °F
Feels Like 71 °F
N
7
Wind Variable Wind from SE

Today
High -- | Low -- °F
--% Chance of Precip.
Yesterday
High -- | Low -- °F
Precip. -- in
7:24 AM 7:47 PM
Waxing Gibbous, 80% visible
Pressure 30.14 in
Visibility 6.0 miles
Clouds Scattered Clouds 800 ft
Mostly Cloudy 1600 ft
Overcast 2700 ft
Dew Point 69 °F
Humidity 93%
Rainfall 0.00 in
Snow Depth Not available.
UV 1 out of 12
Pollen 11.20 out of 12
Air Quality Not available.
Flu Activity Not available.
SPECI KNQI 301404Z 14006KT 6SM BR SCT008 BKN016 OVC027 22/21 A3014 RMK AO2 T02170206 $

More Conditions Fewer Conditions

Pressure 30.14 in
Visibility 6.0 miles
Clouds Scattered Clouds 800 ft
Mostly Cloudy 1600 ft
Overcast 2700 ft
Dew Point 69 °F
Humidity 93%
Rainfall 0.00 in
Snow Depth Not available.
UV 1 out of 12
Pollen 11.20 out of 12
Air Quality Not available.
Flu Activity Not available.
SPECI KNQI 301404Z 14006KT 6SM BR SCT008 BKN016 OVC027 22/21 A3014 RMK AO2 T02170206 $

More Conditions Fewer Conditions

10-Day Weather Forecast

Almanac

Astronomy

Mar. 30, 2015 Rise Set
Actual Time
Civil Twilight
Nautical Twilight
Astronomical Twilight
Moon
Length of Visible Light
Length of Day
Tomorrow will be .
, % of the Moon is Illuminated

Today's Extremes

State Highs State Lows

Community

WunderPhotos

Upload Photos

1,809,502 photos uploaded!

WunderBlogs® & News

Nearby

Air Quality

  Air Quality AQ Index Pollutant
Not available.

Snow Depth

Station Depth Elevation

Earthquake Activity

City Distance Mag. Time & Date
Minimum magnitude displayed is 2.5.

Coastal Water Temperatures

Place Temperature

Stations

Nearby Weather Stations

Station Location Temp. Windchill Dew Point Humidity Wind Precip. Elev Updated Type